Flight Track Log - Related Links

Times and Time Zones

All times are in EDT time to prevent confusion due to time zone crossing. See the AJT744 flight status page for this flight to view local times or setup timezone preferences in your user account.

Time Position Orientation Groundspeed Altitude Reporting Facility
EDT Latitude Longitude Course Direction KTS MPH feet Rate Location/Type
Fri 11:32:46 AM 23.3961 -83.3169 51° Northeast 467 537 39,000  Level Miami Center
Fri 11:33:46 AM 23.4869 -83.1925 51° Northeast 490 564 39,000  Level Miami Center
Fri 11:34:46 AM 23.5753 -83.0747 51° Northeast 496 571 39,000  Level Miami Center
Fri 11:35:46 AM 23.6636 -82.9611 50° Northeast 496 571 39,000  Level Miami Center
Fri 11:36:46 AM 23.7494 -82.8450 51° Northeast 496 571 39,000  Level Miami Center
Fri 11:37:46 AM 23.8397 -82.7292 50° Northeast 496 571 39,000  Level Miami Center
Fri 11:38:46 AM 23.9236 -82.6103 52° Northeast 496 571 39,000  Level Miami Center
Fri 11:39:46 AM 24.0114 -82.4961 50° Northeast 496 571 39,000  Level Miami Center
Fri 11:40:46 AM 24.1203 -82.3761 45° Northeast 498 573 39,000  Level Miami Center
Fri 11:41:46 AM 24.2222 -82.2736 43° Northeast 498 573 39,000 -50 Level Miami Center
Fri 11:42:46 AM 24.3178 -82.1728 44° Northeast 488 562 38,900 -1,150 Descending Miami Center
Fri 11:43:46 AM 24.4194 -82.0700 43° Northeast 482 555 36,700 -2,550 Descending Miami Center
Fri 11:44:46 AM 24.5211 -81.9694 42° Northeast 487 560 33,800 -2,900 Descending Miami Center
Fri 11:45:46 AM 24.6206 -81.8683 43° Northeast 487 560 30,900 -2,450 Descending Miami Center
Fri 11:46:46 AM 24.7133 -81.7853 39° Northeast 481 554 28,900 -2,100 Descending Miami Center
Fri 11:47:46 AM 24.8042 -81.6836 45° Northeast 475 547 26,700 -2,200 Descending Miami Center
Fri 11:48:46 AM 24.8992 -81.5867 43° Northeast 434 499 24,500 -2,200 Descending Miami Center
Fri 11:49:46 AM 24.9900 -81.4939 43° Northeast 427 491 22,300 -2,150 Descending Miami Center
Fri 11:50:46 AM 25.0783 -81.4033 43° Northeast 427 491 20,200 -2,100 Descending Miami Center
Fri 11:51:46 AM 25.1625 -81.3169 43° Northeast 427 491 18,100 -2,000 Descending Miami Center
Fri 11:52:46 AM 25.2400 -81.2347 44° Northeast 410 472 16,200 -1,900 Descending Miami Center
Fri 11:53:46 AM 25.3175 -81.1572 42° Northeast 391 450 14,300 -1,900 Descending Miami Center
Fri 11:54:46 AM 25.3931 -81.0794 43° Northeast 370 426 12,400 -1,884 Descending Miami Center
Fri 11:55:12 AM 25.4208 -81.0503 43° Northeast 348 400 11,600 -1,700 Descending Miami Center
Fri 11:55:46 AM 25.4617 -81.0106 41° Northeast 349 402 10,700 -1,180 Descending Miami Center
Fri 11:56:13 AM 25.4897 -80.9769 47° Northeast 327 376 10,400 -500 Descending Miami Center
Fri 11:56:46 AM 25.5261 -80.9436 40° Northeast 328 377 10,200 -393 Descending Miami Center
Fri 11:57:14 AM 25.5478 -80.9189 46° Northeast 273 314 10,000 -500 Descending Miami Center
Fri 11:57:46 AM 25.5719 -80.8783 57° Northeast 292 336 9,700 -971 Descending Miami Center
Fri 11:58:22 AM 25.5897 -80.8328 67° East 283 326 8,900 -1,200 Descending Miami Center
Fri 11:58:46 AM 25.6094 -80.8036 53° Northeast 278 320 8,500 -1,200 Descending Miami Center
Fri 11:59:17 AM 25.6272 -80.7672 62° Northeast 274 315 7,800 -1,300 Descending Miami Center
Fri 11:59:46 AM 25.6489 -80.7311 56° Northeast 270 311 7,200 -1,279 Descending Miami Center
Fri 12:00:18 PM 25.6667 -80.6903 64° Northeast 281 323 6,500 -1,000 Descending Miami Center
Fri 12:00:46 PM 25.6842 -80.6583 59° Northeast 270 311 6,200 -764 Descending Miami Center
Fri 12:01:13 PM 25.6997 -80.6289 60° Northeast 259 298 5,800 -1,100 Descending Miami Center
Fri 12:01:46 PM 25.7192 -80.5972 56° Northeast 259 298 5,100 -1,574 Descending Miami Center
Fri 12:02:14 PM 25.7347 -80.5608 65° Northeast 243 280 4,200 -1,400 Descending Miami Center
Fri 12:02:46 PM 25.7544 -80.5317 53° Northeast 254 292 3,700 -1,075 Descending Miami Center
Fri 12:03:21 PM 25.7742 -80.4883 63° Northeast 243 280 3,000 -1,100 Descending Miami Center
Fri 12:03:46 PM 25.7789 -80.4631 78° East 244 281 2,600 -1,258 Descending Miami Center
Fri 12:04:23 PM 25.7803 -80.4147 88° East 225 259 1,700 -1,200 Descending Miami Center
Fri 12:04:46 PM 25.7828 -80.3964 81° East 221 254 1,400 -984 Descending Miami Center
Fri 12:05:24 PM 25.7817 -80.3569 92° East 173 199 700 -839 Descending Miami Center
Fri 12:06:19 PM 25.7847 -80.3181 85° East 132 152 100 -655 Descending Miami Center
Fri 12:08:00 PM 25.7833 -80.2833 90° East  Level FlightAware Approximate

Login

Don't have an account? Register now (free) for customized features, flight alerts, and more!